createdAt,value
2022-12-27T00:03:53.468Z,14.30
2022-12-27T00:08:56.778Z,13.10
2022-12-27T00:14:04.325Z,9.60
2022-12-27T00:19:06.403Z,12.30
2022-12-27T00:24:08.470Z,10.40
2022-12-27T00:29:11.181Z,9.30
2022-12-27T00:34:19.137Z,13.30
2022-12-27T00:39:21.148Z,15.00
2022-12-27T00:44:23.041Z,16.90
2022-12-27T00:49:25.018Z,13.40
2022-12-27T00:54:26.986Z,14.50
2022-12-27T00:59:29.081Z,14.40
2022-12-27T01:06:15.590Z,12.20
2022-12-27T01:11:18.310Z,10.40
2022-12-27T01:16:22.513Z,13.90
2022-12-27T01:21:25.335Z,10.30
2022-12-27T01:26:27.254Z,14.70
2022-12-27T01:31:29.445Z,11.40
2022-12-27T01:36:31.774Z,7.20
2022-12-27T01:41:58.423Z,8.00
2022-12-27T01:47:02.419Z,9.60
2022-12-27T01:52:04.995Z,10.90
2022-12-27T01:57:07.060Z,12.20
2022-12-27T02:02:09.682Z,9.30
2022-12-27T02:07:11.686Z,8.90
2022-12-27T02:12:13.690Z,11.00
2022-12-27T02:17:23.907Z,9.50
2022-12-27T02:23:16.123Z,9.10
2022-12-27T02:28:53.690Z,9.30
2022-12-27T02:33:59.787Z,10.30
2022-12-27T02:39:03.961Z,11.00
2022-12-27T02:44:24.622Z,16.40
2022-12-27T02:49:47.983Z,25.50
2022-12-27T02:55:19.214Z,18.10
2022-12-27T03:00:43.626Z,8.70
2022-12-27T03:06:32.676Z,4.70
2022-12-27T03:12:11.229Z,6.10
2022-12-27T03:17:26.344Z,4.00
2022-12-27T03:22:49.348Z,3.50
2022-12-27T03:28:12.299Z,2.60
2022-12-27T03:33:14.312Z,2.10
2022-12-27T03:38:16.482Z,3.90
2022-12-27T03:43:18.500Z,1.50
2022-12-27T03:48:24.675Z,1.70
2022-12-27T03:53:34.143Z,1.90
2022-12-27T03:58:36.151Z,3.70
2022-12-27T04:03:38.185Z,2.50
2022-12-27T04:08:58.707Z,2.40
2022-12-27T04:14:19.115Z,2.80
2022-12-27T04:19:39.584Z,4.70
2022-12-27T04:24:59.939Z,3.60
2022-12-27T04:30:20.725Z,5.90
2022-12-27T04:35:22.605Z,4.00
2022-12-27T04:40:42.987Z,3.60
2022-12-27T04:46:03.647Z,3.80
2022-12-27T04:51:26.652Z,3.60
2022-12-27T04:56:28.600Z,7.30
2022-12-27T05:01:49.627Z,6.20
2022-12-27T05:06:51.824Z,4.30
2022-12-27T05:12:12.227Z,3.40
2022-12-27T05:17:14.204Z,4.40
2022-12-27T05:22:34.579Z,6.60
2022-12-27T05:27:36.480Z,11.90
2022-12-27T05:32:38.418Z,4.70
2022-12-27T05:37:40.331Z,5.00
2022-12-27T05:42:42.991Z,7.80
2022-12-27T05:47:45.329Z,5.20
2022-12-27T05:52:47.186Z,4.50
2022-12-27T05:57:49.120Z,8.30
2022-12-27T06:02:51.769Z,6.10
2022-12-27T06:07:53.909Z,10.40
2022-12-27T06:12:55.830Z,7.50
2022-12-27T06:17:59.548Z,7.70
2022-12-27T06:23:01.383Z,7.70
2022-12-27T06:28:03.479Z,9.00
2022-12-27T06:33:07.603Z,10.20
2022-12-27T06:38:09.587Z,9.50
2022-12-27T06:43:11.505Z,14.80
2022-12-27T06:48:14.570Z,11.10
2022-12-27T06:53:16.516Z,115.10
2022-12-27T06:58:18.451Z,19.10
2022-12-27T07:03:20.394Z,8.60
2022-12-27T07:08:22.352Z,39.40
2022-12-27T07:13:24.265Z,20.00
2022-12-27T07:18:26.199Z,20.10
2022-12-27T07:23:28.071Z,12.40
2022-12-27T07:28:30.745Z,14.60
2022-12-27T07:33:32.702Z,10.10
2022-12-27T07:38:34.490Z,12.80
2022-12-27T07:43:37.004Z,5.80
2022-12-27T07:48:40.057Z,9.80
2022-12-27T07:53:42.394Z,10.90
2022-12-27T07:58:47.557Z,16.50
2022-12-27T08:03:56.320Z,18.20
2022-12-27T08:09:05.528Z,15.20
2022-12-27T08:14:07.596Z,13.40
2022-12-27T08:19:09.767Z,14.80
2022-12-27T08:24:11.666Z,15.10
2022-12-27T08:29:13.577Z,12.00
2022-12-27T08:34:15.681Z,16.70
2022-12-27T08:39:18.177Z,14.50
2022-12-27T08:44:21.336Z,9.70
2022-12-27T08:49:23.396Z,11.70
2022-12-27T08:54:25.295Z,10.10
2022-12-27T08:59:27.189Z,10.20
2022-12-27T09:04:29.139Z,17.10
2022-12-27T09:09:31.341Z,9.10
2022-12-27T09:14:33.351Z,11.70
2022-12-27T09:19:36.361Z,8.00
2022-12-27T09:24:38.118Z,9.30
2022-12-27T09:29:44.567Z,9.60
2022-12-27T09:34:50.037Z,70.70
2022-12-27T09:39:51.991Z,23.40
2022-12-27T09:45:14.807Z,13.90
2022-12-27T09:50:28.481Z,8.40
2022-12-27T09:56:04.466Z,13.10
2022-12-27T10:01:19.898Z,6.60
2022-12-27T10:06:31.084Z,11.40
2022-12-27T10:12:02.608Z,7.30
2022-12-27T10:17:25.748Z,8.00
2022-12-27T10:22:35.377Z,5.60
2022-12-27T10:27:37.373Z,18.90
2022-12-27T10:32:39.145Z,9.00
2022-12-27T10:37:41.209Z,9.90
2022-12-27T10:42:54.368Z,11.30
2022-12-27T10:48:02.776Z,10.80
2022-12-27T10:53:04.834Z,5.10
2022-12-27T10:58:42.159Z,51.20
2022-12-27T11:03:45.385Z,9.10
2022-12-27T11:08:47.713Z,5.50
2022-12-27T11:13:50.732Z,6.10
2022-12-27T11:18:55.712Z,5.00
2022-12-27T11:24:00.818Z,5.90
2022-12-27T11:29:03.506Z,7.70
2022-12-27T11:34:15.046Z,10.60
2022-12-27T11:39:53.870Z,8.90
2022-12-27T11:45:34.236Z,5.00
2022-12-27T11:50:55.153Z,7.70
2022-12-27T11:56:19.834Z,3.60
2022-12-27T12:01:58.052Z,5.40
2022-12-27T12:07:21.758Z,2.30
2022-12-27T12:12:26.700Z,10.70
2022-12-27T12:18:05.682Z,8.10
2022-12-27T12:23:28.971Z,7.20
2022-12-27T12:29:00.550Z,5.00
2022-12-27T12:34:05.669Z,3.20
2022-12-27T12:39:10.826Z,4.00
2022-12-27T12:44:22.261Z,6.60
2022-12-27T12:49:53.832Z,5.30
2022-12-27T12:55:17.521Z,7.50
2022-12-27T13:00:37.821Z,4.70
2022-12-27T13:06:04.609Z,7.40
2022-12-27T13:11:21.115Z,7.80
2022-12-27T13:16:42.838Z,5.30
2022-12-27T13:22:07.458Z,3.80
2022-12-27T13:27:09.488Z,3.70
2022-12-27T13:32:30.187Z,4.20
2022-12-27T13:37:56.366Z,4.50
2022-12-27T13:43:31.711Z,4.70
2022-12-27T13:49:02.238Z,8.60
2022-12-27T13:54:50.957Z,5.10
2022-12-27T14:00:02.686Z,7.00
2022-12-27T14:05:37.877Z,8.40
2022-12-27T14:10:49.320Z,11.50
2022-12-27T14:16:08.853Z,3.80
2022-12-27T14:26:38.781Z,8.80
2022-12-27T14:31:59.628Z,5.30
2022-12-27T14:37:23.645Z,11.80
2022-12-27T14:42:33.146Z,14.30
2022-12-27T14:47:45.087Z,10.10
2022-12-27T14:58:43.583Z,12.40
2022-12-27T15:03:56.588Z,14.80
2022-12-27T15:09:08.195Z,11.10
2022-12-27T15:19:28.455Z,7.70
2022-12-27T15:24:55.015Z,8.60
2022-12-27T15:30:42.816Z,9.40
2022-12-27T15:36:01.940Z,9.10
2022-12-27T15:41:07.672Z,29.80
2022-12-27T15:46:35.860Z,35.30
2022-12-27T15:51:47.464Z,36.10
2022-12-27T15:57:16.969Z,38.10
2022-12-27T16:02:22.812Z,30.90
2022-12-27T16:07:41.330Z,32.50
2022-12-27T16:12:45.329Z,28.20
2022-12-27T16:17:55.225Z,31.40
2022-12-27T16:23:04.926Z,26.40
2022-12-27T16:28:18.427Z,16.20
2022-12-27T16:33:26.911Z,24.50
2022-12-27T16:38:30.619Z,24.60
2022-12-27T16:44:00.167Z,25.40
2022-12-27T16:49:25.356Z,25.90
2022-12-27T16:54:57.824Z,23.00
2022-12-27T17:00:05.387Z,31.20
2022-12-27T17:05:16.480Z,36.00
2022-12-27T17:10:27.723Z,35.20
2022-12-27T17:15:30.842Z,35.30
2022-12-27T17:20:33.293Z,26.20
2022-12-27T17:25:46.049Z,23.70
2022-12-27T17:31:00.340Z,18.70
2022-12-27T17:36:53.635Z,26.90
2022-12-27T17:42:34.184Z,21.70
2022-12-27T17:47:42.106Z,29.40
2022-12-27T17:53:21.396Z,26.80
2022-12-27T17:58:24.029Z,28.50
2022-12-27T18:03:39.659Z,21.50
2022-12-27T18:08:44.415Z,30.40
2022-12-27T18:13:53.768Z,22.10
2022-12-27T18:18:59.822Z,31.20
2022-12-27T18:24:01.976Z,32.50
2022-12-27T18:29:09.223Z,30.20
2022-12-27T18:34:31.471Z,29.50
2022-12-27T18:39:48.877Z,32.50
2022-12-27T18:44:57.081Z,34.20
2022-12-27T18:50:01.602Z,27.40
2022-12-27T18:55:28.831Z,42.60
2022-12-27T19:00:30.836Z,42.60
2022-12-27T19:05:32.930Z,40.00
2022-12-27T19:10:35.176Z,27.60
2022-12-27T19:15:43.491Z,35.40
2022-12-27T19:20:52.689Z,46.00
2022-12-27T19:26:17.627Z,43.40
2022-12-27T19:31:21.992Z,47.10
2022-12-27T19:36:30.207Z,35.80
2022-12-27T19:41:32.420Z,44.30
2022-12-27T19:47:51.379Z,44.30
2022-12-27T19:52:53.571Z,53.60
2022-12-27T19:57:56.264Z,50.90
2022-12-27T20:02:58.185Z,49.00
2022-12-27T20:08:03.218Z,50.30
2022-12-27T20:13:05.937Z,54.20
2022-12-27T20:18:09.520Z,47.90
2022-12-27T20:23:12.285Z,57.10
2022-12-27T20:28:16.382Z,52.30
2022-12-27T20:33:18.530Z,46.40
2022-12-27T20:38:20.457Z,59.10
2022-12-27T20:43:22.397Z,45.70
2022-12-27T20:48:25.035Z,49.30
2022-12-27T20:53:28.245Z,43.30
2022-12-27T20:58:31.316Z,40.20
2022-12-27T21:03:33.683Z,37.30
2022-12-27T21:08:44.588Z,36.70
2022-12-27T21:13:49.242Z,41.90
2022-12-27T21:18:52.012Z,40.10
2022-12-27T21:23:53.966Z,33.80
2022-12-27T21:31:15.442Z,33.80
2022-12-27T21:36:30.190Z,27.70
2022-12-27T21:41:37.634Z,32.80
2022-12-27T21:46:41.547Z,41.90
2022-12-27T21:51:43.884Z,33.40
2022-12-27T21:56:45.854Z,29.00
2022-12-27T22:01:51.746Z,20.20
2022-12-27T22:06:54.166Z,23.60
2022-12-27T22:11:56.184Z,25.30
2022-12-27T22:17:00.317Z,31.60
2022-12-27T22:22:02.219Z,21.00
2022-12-27T22:27:04.264Z,32.40
2022-12-27T22:32:06.286Z,23.70
2022-12-27T22:37:08.194Z,20.70
2022-12-27T22:42:10.080Z,26.90
2022-12-27T22:47:28.416Z,40.10
2022-12-27T22:52:30.533Z,31.20
2022-12-27T22:57:32.437Z,23.90
2022-12-27T23:02:34.504Z,25.70
2022-12-27T23:08:05.702Z,26.70
2022-12-27T23:12:58.546Z,24.60
2022-12-27T23:18:00.337Z,27.60
2022-12-27T23:23:02.201Z,24.10
2022-12-27T23:28:04.194Z,26.20
2022-12-27T23:36:25.091Z,27.00
2022-12-27T23:41:26.979Z,28.40
2022-12-27T23:46:31.316Z,22.40
2022-12-27T23:51:33.317Z,27.50
2022-12-27T23:56:35.269Z,22.40
